Preveza, Greece
Current Conditions -  °F | °C
As of 8:50 AM on Saturday 25 Oct 2014 (Local Time) from LGPZ Reporting Station
Scattered Clouds Scattered Clouds  
Wind Chill: 55°   Ceiling: Unl
Heat Index: 55°   Visibility: 6mi
Dew Point: 45°   Wind: 6mph
Humidity: 67%   Direction: 30°NNE
Pressure: 29.83"   Gusts: NA
Location:  38.95°N, 20.75°E
Report Text: LGPZ 250550Z 03005KT 9999 FEW008 SCT080 13/07 Q1010
Loading
Personal Weather Stations






























Interactive Weather Map
Tropical Storm Tracking
New forecast layout! Learn more

10-Day Weather Forecast

Advertisements
Track Severe Weather on mobile